sensor_id;sensor_type;location;lat;lon;timestamp;P1;durP1;ratioP1;P2;durP2;ratioP2
8401;SDS011;4238;48.404;9.498;2023-04-15T00:00:44;5.03;;;3.40;;
8401;SDS011;4238;48.404;9.498;2023-04-15T00:03:11;4.37;;;3.80;;
8401;SDS011;4238;48.404;9.498;2023-04-15T00:05:38;3.60;;;3.10;;
8401;SDS011;4238;48.404;9.498;2023-04-15T00:08:06;3.30;;;3.03;;
8401;SDS011;4238;48.404;9.498;2023-04-15T00:10:33;3.63;;;3.33;;
8401;SDS011;4238;48.404;9.498;2023-04-15T00:13:00;3.70;;;3.10;;
8401;SDS011;4238;48.404;9.498;2023-04-15T00:15:28;5.90;;;3.40;;
8401;SDS011;4238;48.404;9.498;2023-04-15T00:17:55;4.33;;;3.77;;
8401;SDS011;4238;48.404;9.498;2023-04-15T00:20:22;3.23;;;2.93;;
8401;SDS011;4238;48.404;9.498;2023-04-15T00:22:49;3.70;;;3.40;;
8401;SDS011;4238;48.404;9.498;2023-04-15T00:25:17;4.40;;;3.00;;
8401;SDS011;4238;48.404;9.498;2023-04-15T00:27:44;5.07;;;3.40;;
8401;SDS011;4238;48.404;9.498;2023-04-15T00:30:11;3.97;;;2.90;;
8401;SDS011;4238;48.404;9.498;2023-04-15T00:32:38;3.90;;;3.30;;
8401;SDS011;4238;48.404;9.498;2023-04-15T00:35:06;3.40;;;3.10;;
8401;SDS011;4238;48.404;9.498;2023-04-15T00:37:34;6.73;;;3.70;;
8401;SDS011;4238;48.404;9.498;2023-04-15T00:40:01;4.03;;;3.00;;
8401;SDS011;4238;48.404;9.498;2023-04-15T00:42:31;4.33;;;3.00;;
8401;SDS011;4238;48.404;9.498;2023-04-15T00:44:58;3.30;;;3.00;;
8401;SDS011;4238;48.404;9.498;2023-04-15T00:47:25;4.50;;;3.43;;
8401;SDS011;4238;48.404;9.498;2023-04-15T00:49:54;3.63;;;2.90;;
8401;SDS011;4238;48.404;9.498;2023-04-15T00:52:22;3.67;;;3.10;;
8401;SDS011;4238;48.404;9.498;2023-04-15T00:54:48;6.30;;;3.60;;
8401;SDS011;4238;48.404;9.498;2023-04-15T00:57:19;6.00;;;3.53;;
8401;SDS011;4238;48.404;9.498;2023-04-15T00:59:49;5.10;;;3.47;;
8401;SDS011;4238;48.404;9.498;2023-04-15T01:02:17;5.47;;;3.80;;
8401;SDS011;4238;48.404;9.498;2023-04-15T01:04:45;4.67;;;3.10;;
8401;SDS011;4238;48.404;9.498;2023-04-15T01:07:12;3.43;;;3.13;;
8401;SDS011;4238;48.404;9.498;2023-04-15T01:09:41;4.40;;;3.40;;
8401;SDS011;4238;48.404;9.498;2023-04-15T01:12:08;4.30;;;2.90;;
8401;SDS011;4238;48.404;9.498;2023-04-15T01:14:38;4.07;;;3.10;;
8401;SDS011;4238;48.404;9.498;2023-04-15T01:17:06;4.10;;;3.00;;
8401;SDS011;4238;48.404;9.498;2023-04-15T01:19:34;3.77;;;3.23;;
8401;SDS011;4238;48.404;9.498;2023-04-15T01:22:02;4.23;;;2.87;;
8401;SDS011;4238;48.404;9.498;2023-04-15T01:24:29;3.30;;;3.00;;
8401;SDS011;4238;48.404;9.498;2023-04-15T01:26:59;5.90;;;3.73;;
8401;SDS011;4238;48.404;9.498;2023-04-15T01:29:27;5.27;;;3.67;;
8401;SDS011;4238;48.404;9.498;2023-04-15T01:31:56;4.83;;;3.53;;
8401;SDS011;4238;48.404;9.498;2023-04-15T01:34:23;4.37;;;3.40;;
8401;SDS011;4238;48.404;9.498;2023-04-15T01:36:50;5.53;;;3.60;;
8401;SDS011;4238;48.404;9.498;2023-04-15T01:39:17;5.70;;;3.50;;
8401;SDS011;4238;48.404;9.498;2023-04-15T01:41:44;5.60;;;4.00;;
8401;SDS011;4238;48.404;9.498;2023-04-15T01:44:12;4.00;;;3.60;;
8401;SDS011;4238;48.404;9.498;2023-04-15T01:46:39;5.47;;;4.70;;
8401;SDS011;4238;48.404;9.498;2023-04-15T01:49:06;4.20;;;3.63;;
8401;SDS011;4238;48.404;9.498;2023-04-15T01:51:33;4.37;;;3.97;;
8401;SDS011;4238;48.404;9.498;2023-04-15T01:54:00;6.33;;;3.97;;
8401;SDS011;4238;48.404;9.498;2023-04-15T01:56:27;6.00;;;3.50;;
8401;SDS011;4238;48.404;9.498;2023-04-15T01:58:53;5.87;;;3.07;;
8401;SDS011;4238;48.404;9.498;2023-04-15T02:01:22;5.17;;;3.40;;
8401;SDS011;4238;48.404;9.498;2023-04-15T02:03:49;6.53;;;3.77;;
8401;SDS011;4238;48.404;9.498;2023-04-15T02:06:16;5.33;;;3.17;;
8401;SDS011;4238;48.404;9.498;2023-04-15T02:08:43;6.23;;;3.50;;
8401;SDS011;4238;48.404;9.498;2023-04-15T02:11:10;4.77;;;2.90;;
8401;SDS011;4238;48.404;9.498;2023-04-15T02:13:37;3.27;;;2.97;;
8401;SDS011;4238;48.404;9.498;2023-04-15T02:16:04;3.50;;;3.13;;
8401;SDS011;4238;48.404;9.498;2023-04-15T02:18:42;3.47;;;2.73;;
8401;SDS011;4238;48.404;9.498;2023-04-15T02:21:09;5.13;;;2.77;;
8401;SDS011;4238;48.404;9.498;2023-04-15T02:23:36;6.97;;;3.23;;
8401;SDS011;4238;48.404;9.498;2023-04-15T02:26:03;3.57;;;3.10;;
8401;SDS011;4238;48.404;9.498;2023-04-15T02:28:30;3.77;;;3.10;;
8401;SDS011;4238;48.404;9.498;2023-04-15T02:30:57;5.90;;;2.87;;
8401;SDS011;4238;48.404;9.498;2023-04-15T02:33:25;3.50;;;3.17;;
8401;SDS011;4238;48.404;9.498;2023-04-15T02:35:54;3.20;;;2.97;;
8401;SDS011;4238;48.404;9.498;2023-04-15T02:38:20;3.67;;;3.33;;
8401;SDS011;4238;48.404;9.498;2023-04-15T02:40:47;3.80;;;3.00;;
8401;SDS011;4238;48.404;9.498;2023-04-15T02:43:15;5.77;;;3.13;;
8401;SDS011;4238;48.404;9.498;2023-04-15T02:45:42;4.67;;;2.70;;
8401;SDS011;4238;48.404;9.498;2023-04-15T02:48:09;4.60;;;3.13;;
8401;SDS011;4238;48.404;9.498;2023-04-15T02:50:36;2.83;;;2.57;;
8401;SDS011;4238;48.404;9.498;2023-04-15T02:53:06;6.13;;;3.17;;
8401;SDS011;4238;48.404;9.498;2023-04-15T02:55:33;3.97;;;3.20;;
8401;SDS011;4238;48.404;9.498;2023-04-15T02:57:59;3.70;;;3.40;;
8401;SDS011;4238;48.404;9.498;2023-04-15T03:00:26;3.80;;;3.50;;
8401;SDS011;4238;48.404;9.498;2023-04-15T03:02:57;3.40;;;3.10;;
8401;SDS011;4238;48.404;9.498;2023-04-15T03:05:24;3.83;;;3.53;;
8401;SDS011;4238;48.404;9.498;2023-04-15T03:07:52;3.23;;;2.97;;
8401;SDS011;4238;48.404;9.498;2023-04-15T03:10:20;4.53;;;3.00;;
8401;SDS011;4238;48.404;9.498;2023-04-15T03:12:47;3.30;;;3.10;;
8401;SDS011;4238;48.404;9.498;2023-04-15T03:15:14;3.90;;;3.10;;
8401;SDS011;4238;48.404;9.498;2023-04-15T03:17:42;3.43;;;3.10;;
8401;SDS011;4238;48.404;9.498;2023-04-15T03:20:09;2.93;;;2.73;;
8401;SDS011;4238;48.404;9.498;2023-04-15T03:22:36;3.37;;;2.57;;
8401;SDS011;4238;48.404;9.498;2023-04-15T03:25:03;4.33;;;3.30;;
8401;SDS011;4238;48.404;9.498;2023-04-15T03:27:33;3.27;;;2.90;;
8401;SDS011;4238;48.404;9.498;2023-04-15T03:30:00;5.43;;;3.03;;
8401;SDS011;4238;48.404;9.498;2023-04-15T03:32:27;3.20;;;2.97;;
8401;SDS011;4238;48.404;9.498;2023-04-15T03:34:54;5.43;;;3.10;;
8401;SDS011;4238;48.404;9.498;2023-04-15T03:37:20;5.00;;;2.80;;
8401;SDS011;4238;48.404;9.498;2023-04-15T03:39:47;3.73;;;3.13;;
8401;SDS011;4238;48.404;9.498;2023-04-15T03:42:14;3.83;;;2.90;;
8401;SDS011;4238;48.404;9.498;2023-04-15T03:44:42;3.10;;;2.90;;
8401;SDS011;4238;48.404;9.498;2023-04-15T03:47:09;3.20;;;2.93;;
8401;SDS011;4238;48.404;9.498;2023-04-15T03:49:36;3.00;;;2.80;;
8401;SDS011;4238;48.404;9.498;2023-04-15T03:52:03;3.10;;;2.80;;
8401;SDS011;4238;48.404;9.498;2023-04-15T03:54:30;4.13;;;3.17;;
8401;SDS011;4238;48.404;9.498;2023-04-15T03:56:57;4.23;;;2.63;;
8401;SDS011;4238;48.404;9.498;2023-04-15T03:59:24;3.63;;;3.00;;
8401;SDS011;4238;48.404;9.498;2023-04-15T04:01:52;4.97;;;3.27;;
8401;SDS011;4238;48.404;9.498;2023-04-15T04:04:19;2.97;;;2.73;;
8401;SDS011;4238;48.404;9.498;2023-04-15T04:06:46;3.50;;;3.00;;
8401;SDS011;4238;48.404;9.498;2023-04-15T04:09:13;4.03;;;3.03;;
8401;SDS011;4238;48.404;9.498;2023-04-15T04:11:40;3.47;;;2.90;;
8401;SDS011;4238;48.404;9.498;2023-04-15T04:14:07;3.87;;;2.97;;
8401;SDS011;4238;48.404;9.498;2023-04-15T04:16:33;3.03;;;2.80;;
8401;SDS011;4238;48.404;9.498;2023-04-15T04:19:02;4.10;;;3.70;;
8401;SDS011;4238;48.404;9.498;2023-04-15T04:21:29;8.30;;;3.67;;
8401;SDS011;4238;48.404;9.498;2023-04-15T04:23:58;5.07;;;3.57;;
8401;SDS011;4238;48.404;9.498;2023-04-15T04:26:25;3.23;;;2.93;;
8401;SDS011;4238;48.404;9.498;2023-04-15T04:28:51;7.20;;;4.43;;
8401;SDS011;4238;48.404;9.498;2023-04-15T04:31:18;3.97;;;3.63;;
8401;SDS011;4238;48.404;9.498;2023-04-15T04:33:45;4.53;;;3.60;;
8401;SDS011;4238;48.404;9.498;2023-04-15T04:36:14;6.27;;;4.00;;
8401;SDS011;4238;48.404;9.498;2023-04-15T04:38:41;5.67;;;3.47;;
8401;SDS011;4238;48.404;9.498;2023-04-15T04:41:07;4.67;;;3.10;;
8401;SDS011;4238;48.404;9.498;2023-04-15T04:43:34;3.97;;;3.40;;
8401;SDS011;4238;48.404;9.498;2023-04-15T04:46:01;4.37;;;3.60;;
8401;SDS011;4238;48.404;9.498;2023-04-15T04:48:28;3.63;;;3.33;;
8401;SDS011;4238;48.404;9.498;2023-04-15T04:50:55;4.50;;;3.40;;
8401;SDS011;4238;48.404;9.498;2023-04-15T04:53:23;5.70;;;3.53;;
8401;SDS011;4238;48.404;9.498;2023-04-15T04:55:52;3.83;;;3.10;;
8401;SDS011;4238;48.404;9.498;2023-04-15T04:58:18;4.23;;;3.20;;
8401;SDS011;4238;48.404;9.498;2023-04-15T05:00:45;4.73;;;3.30;;
8401;SDS011;4238;48.404;9.498;2023-04-15T05:03:12;3.30;;;3.00;;
8401;SDS011;4238;48.404;9.498;2023-04-15T05:05:40;4.17;;;3.10;;
8401;SDS011;4238;48.404;9.498;2023-04-15T05:08:07;3.30;;;3.00;;
8401;SDS011;4238;48.404;9.498;2023-04-15T05:10:35;3.73;;;3.37;;
8401;SDS011;4238;48.404;9.498;2023-04-15T05:13:02;5.17;;;3.70;;
8401;SDS011;4238;48.404;9.498;2023-04-15T05:15:29;3.50;;;3.13;;
8401;SDS011;4238;48.404;9.498;2023-04-15T05:17:56;4.90;;;3.53;;
8401;SDS011;4238;48.404;9.498;2023-04-15T05:20:23;4.23;;;3.93;;
8401;SDS011;4238;48.404;9.498;2023-04-15T05:22:50;4.50;;;4.10;;
8401;SDS011;4238;48.404;9.498;2023-04-15T05:25:17;5.90;;;5.30;;
8401;SDS011;4238;48.404;9.498;2023-04-15T05:27:45;5.50;;;4.37;;
8401;SDS011;4238;48.404;9.498;2023-04-15T05:30:12;5.17;;;3.77;;
8401;SDS011;4238;48.404;9.498;2023-04-15T05:32:39;4.30;;;3.70;;
8401;SDS011;4238;48.404;9.498;2023-04-15T05:35:06;4.83;;;3.73;;
8401;SDS011;4238;48.404;9.498;2023-04-15T05:37:33;5.23;;;3.70;;
8401;SDS011;4238;48.404;9.498;2023-04-15T05:40:00;3.33;;;2.67;;
8401;SDS011;4238;48.404;9.498;2023-04-15T05:42:28;3.50;;;3.20;;
8401;SDS011;4238;48.404;9.498;2023-04-15T05:44:56;3.53;;;3.23;;
8401;SDS011;4238;48.404;9.498;2023-04-15T05:47:23;5.27;;;3.60;;
8401;SDS011;4238;48.404;9.498;2023-04-15T05:49:50;4.83;;;4.03;;
8401;SDS011;4238;48.404;9.498;2023-04-15T05:52:17;6.23;;;4.90;;
8401;SDS011;4238;48.404;9.498;2023-04-15T05:54:44;7.63;;;6.67;;
8401;SDS011;4238;48.404;9.498;2023-04-15T05:57:11;7.20;;;6.50;;
8401;SDS011;4238;48.404;9.498;2023-04-15T05:59:38;10.30;;;6.40;;
8401;SDS011;4238;48.404;9.498;2023-04-15T06:02:07;9.70;;;7.67;;
8401;SDS011;4238;48.404;9.498;2023-04-15T06:04:35;9.80;;;8.37;;
8401;SDS011;4238;48.404;9.498;2023-04-15T06:07:03;8.00;;;7.23;;
8401;SDS011;4238;48.404;9.498;2023-04-15T06:09:30;10.53;;;8.43;;
8401;SDS011;4238;48.404;9.498;2023-04-15T06:11:57;11.53;;;8.60;;
8401;SDS011;4238;48.404;9.498;2023-04-15T06:14:25;8.53;;;7.70;;
8401;SDS011;4238;48.404;9.498;2023-04-15T06:16:52;8.90;;;7.17;;
8401;SDS011;4238;48.404;9.498;2023-04-15T06:19:20;8.00;;;6.30;;
8401;SDS011;4238;48.404;9.498;2023-04-15T06:21:47;6.80;;;6.20;;
8401;SDS011;4238;48.404;9.498;2023-04-15T06:24:14;7.10;;;5.47;;
8401;SDS011;4238;48.404;9.498;2023-04-15T06:26:41;5.70;;;5.20;;
8401;SDS011;4238;48.404;9.498;2023-04-15T06:29:08;7.10;;;5.43;;
8401;SDS011;4238;48.404;9.498;2023-04-15T06:31:35;6.43;;;4.60;;
8401;SDS011;4238;48.404;9.498;2023-04-15T06:34:02;6.80;;;5.00;;
8401;SDS011;4238;48.404;9.498;2023-04-15T06:36:30;5.53;;;4.83;;
8401;SDS011;4238;48.404;9.498;2023-04-15T06:38:57;6.67;;;5.20;;
8401;SDS011;4238;48.404;9.498;2023-04-15T06:41:25;8.50;;;5.93;;
8401;SDS011;4238;48.404;9.498;2023-04-15T06:43:52;11.30;;;9.93;;
8401;SDS011;4238;48.404;9.498;2023-04-15T06:46:19;11.47;;;9.23;;
8401;SDS011;4238;48.404;9.498;2023-04-15T06:48:46;9.93;;;8.50;;
8401;SDS011;4238;48.404;9.498;2023-04-15T06:51:13;10.90;;;9.33;;
8401;SDS011;4238;48.404;9.498;2023-04-15T06:53:41;10.53;;;9.40;;
8401;SDS011;4238;48.404;9.498;2023-04-15T06:56:08;10.03;;;9.03;;
8401;SDS011;4238;48.404;9.498;2023-04-15T06:58:35;10.03;;;7.73;;
8401;SDS011;4238;48.404;9.498;2023-04-15T07:01:02;10.47;;;9.17;;
8401;SDS011;4238;48.404;9.498;2023-04-15T07:03:29;9.27;;;7.77;;
8401;SDS011;4238;48.404;9.498;2023-04-15T07:05:56;8.23;;;7.40;;
8401;SDS011;4238;48.404;9.498;2023-04-15T07:08:23;8.97;;;7.60;;
8401;SDS011;4238;48.404;9.498;2023-04-15T07:10:52;9.10;;;7.40;;
8401;SDS011;4238;48.404;9.498;2023-04-15T07:13:19;8.73;;;7.73;;
8401;SDS011;4238;48.404;9.498;2023-04-15T07:15:46;16.07;;;12.53;;
8401;SDS011;4238;48.404;9.498;2023-04-15T07:18:12;11.50;;;9.43;;
8401;SDS011;4238;48.404;9.498;2023-04-15T07:20:40;10.90;;;9.63;;
8401;SDS011;4238;48.404;9.498;2023-04-15T07:23:07;8.50;;;7.60;;
8401;SDS011;4238;48.404;9.498;2023-04-15T07:25:34;8.20;;;7.40;;
8401;SDS011;4238;48.404;9.498;2023-04-15T07:28:02;6.77;;;6.10;;
8401;SDS011;4238;48.404;9.498;2023-04-15T07:30:29;9.03;;;6.03;;
8401;SDS011;4238;48.404;9.498;2023-04-15T07:32:56;6.70;;;5.50;;
8401;SDS011;4238;48.404;9.498;2023-04-15T07:35:23;5.97;;;5.40;;
8401;SDS011;4238;48.404;9.498;2023-04-15T07:37:50;7.23;;;4.00;;
8401;SDS011;4238;48.404;9.498;2023-04-15T07:40:17;5.73;;;4.27;;
8401;SDS011;4238;48.404;9.498;2023-04-15T07:42:44;4.57;;;3.70;;
8401;SDS011;4238;48.404;9.498;2023-04-15T07:45:14;4.30;;;3.90;;
8401;SDS011;4238;48.404;9.498;2023-04-15T07:47:41;10.07;;;4.43;;
8401;SDS011;4238;48.404;9.498;2023-04-15T07:50:08;6.67;;;4.13;;
8401;SDS011;4238;48.404;9.498;2023-04-15T07:52:36;5.10;;;4.10;;
8401;SDS011;4238;48.404;9.498;2023-04-15T07:55:04;4.07;;;3.77;;
8401;SDS011;4238;48.404;9.498;2023-04-15T07:57:32;3.83;;;3.30;;
8401;SDS011;4238;48.404;9.498;2023-04-15T07:59:59;5.50;;;2.63;;
8401;SDS011;4238;48.404;9.498;2023-04-15T08:02:29;4.45;;;2.90;;
8401;SDS011;4238;48.404;9.498;2023-04-15T08:04:56;4.65;;;2.83;;
8401;SDS011;4238;48.404;9.498;2023-04-15T08:07:23;4.40;;;3.03;;
8401;SDS011;4238;48.404;9.498;2023-04-15T08:09:50;5.13;;;2.97;;
8401;SDS011;4238;48.404;9.498;2023-04-15T08:12:17;4.67;;;3.20;;
8401;SDS011;4238;48.404;9.498;2023-04-15T08:14:44;3.22;;;2.92;;
8401;SDS011;4238;48.404;9.498;2023-04-15T08:17:11;2.75;;;2.40;;
8401;SDS011;4238;48.404;9.498;2023-04-15T08:19:40;4.25;;;2.30;;
8401;SDS011;4238;48.404;9.498;2023-04-15T08:22:07;3.30;;;2.28;;
8401;SDS011;4238;48.404;9.498;2023-04-15T08:24:34;2.63;;;2.42;;
8401;SDS011;4238;48.404;9.498;2023-04-15T08:27:01;3.30;;;2.28;;
8401;SDS011;4238;48.404;9.498;2023-04-15T08:29:29;2.88;;;2.30;;
8401;SDS011;4238;48.404;9.498;2023-04-15T08:31:56;2.55;;;1.98;;
8401;SDS011;4238;48.404;9.498;2023-04-15T08:34:25;4.15;;;2.30;;
8401;SDS011;4238;48.404;9.498;2023-04-15T08:36:54;4.18;;;2.38;;
8401;SDS011;4238;48.404;9.498;2023-04-15T08:39:20;3.70;;;2.05;;
8401;SDS011;4238;48.404;9.498;2023-04-15T08:41:50;3.63;;;3.25;;
8401;SDS011;4238;48.404;9.498;2023-04-15T08:44:20;4.50;;;2.55;;
8401;SDS011;4238;48.404;9.498;2023-04-15T08:46:48;3.45;;;2.22;;
8401;SDS011;4238;48.404;9.498;2023-04-15T08:49:17;3.15;;;2.50;;
8401;SDS011;4238;48.404;9.498;2023-04-15T08:51:46;4.40;;;2.63;;
8401;SDS011;4238;48.404;9.498;2023-04-15T08:54:15;4.03;;;2.30;;
8401;SDS011;4238;48.404;9.498;2023-04-15T08:56:43;2.92;;;2.10;;
8401;SDS011;4238;48.404;9.498;2023-04-15T08:59:11;3.70;;;2.03;;
8401;SDS011;4238;48.404;9.498;2023-04-15T09:01:38;3.13;;;2.17;;
8401;SDS011;4238;48.404;9.498;2023-04-15T09:04:05;2.55;;;2.15;;
8401;SDS011;4238;48.404;9.498;2023-04-15T09:06:33;2.63;;;2.42;;
8401;SDS011;4238;48.404;9.498;2023-04-15T09:09:00;3.38;;;2.28;;
8401;SDS011;4238;48.404;9.498;2023-04-15T09:11:30;3.05;;;2.30;;
8401;SDS011;4238;48.404;9.498;2023-04-15T09:13:56;2.63;;;2.03;;
8401;SDS011;4238;48.404;9.498;2023-04-15T09:16:23;3.13;;;2.08;;
8401;SDS011;4238;48.404;9.498;2023-04-15T09:18:52;2.83;;;1.92;;
8401;SDS011;4238;48.404;9.498;2023-04-15T09:21:19;1.77;;;1.67;;
8401;SDS011;4238;48.404;9.498;2023-04-15T09:23:54;1.75;;;1.65;;
8401;SDS011;4238;48.404;9.498;2023-04-15T09:26:30;1.73;;;1.63;;
8401;SDS011;4238;48.404;9.498;2023-04-15T09:29:02;2.03;;;1.88;;
8401;SDS011;4238;48.404;9.498;2023-04-15T09:31:31;3.33;;;2.22;;
8401;SDS011;4238;48.404;9.498;2023-04-15T09:33:58;3.60;;;3.30;;
8401;SDS011;4238;48.404;9.498;2023-04-15T09:36:25;4.10;;;2.45;;
8401;SDS011;4238;48.404;9.498;2023-04-15T09:38:54;2.13;;;1.88;;
8401;SDS011;4238;48.404;9.498;2023-04-15T09:41:22;3.88;;;2.50;;
8401;SDS011;4238;48.404;9.498;2023-04-15T09:43:51;17.23;;;6.97;;
8401;SDS011;4238;48.404;9.498;2023-04-15T09:46:18;1.95;;;1.83;;
8401;SDS011;4238;48.404;9.498;2023-04-15T09:48:46;7.80;;;3.78;;
8401;SDS011;4238;48.404;9.498;2023-04-15T09:51:35;2.95;;;2.10;;
8401;SDS011;4238;48.404;9.498;2023-04-15T09:54:02;5.90;;;2.35;;
8401;SDS011;4238;48.404;9.498;2023-04-15T09:56:31;1.80;;;1.70;;
8401;SDS011;4238;48.404;9.498;2023-04-15T09:59:01;2.00;;;1.83;;
8401;SDS011;4238;48.404;9.498;2023-04-15T10:01:28;1.98;;;1.48;;
8401;SDS011;4238;48.404;9.498;2023-04-15T10:03:56;2.78;;;1.85;;
8401;SDS011;4238;48.404;9.498;2023-04-15T10:06:24;3.78;;;1.65;;
8401;SDS011;4238;48.404;9.498;2023-04-15T10:08:51;2.28;;;1.70;;
8401;SDS011;4238;48.404;9.498;2023-04-15T10:11:20;3.25;;;2.25;;
8401;SDS011;4238;48.404;9.498;2023-04-15T10:13:49;1.98;;;1.55;;
8401;SDS011;4238;48.404;9.498;2023-04-15T10:16:19;1.73;;;1.45;;
8401;SDS011;4238;48.404;9.498;2023-04-15T10:18:50;2.17;;;1.88;;
8401;SDS011;4238;48.404;9.498;2023-04-15T10:21:20;2.65;;;2.03;;
8401;SDS011;4238;48.404;9.498;2023-04-15T10:23:47;2.95;;;2.00;;
8401;SDS011;4238;48.404;9.498;2023-04-15T10:26:15;1.95;;;1.60;;
8401;SDS011;4238;48.404;9.498;2023-04-15T10:28:42;1.98;;;1.88;;
8401;SDS011;4238;48.404;9.498;2023-04-15T10:31:11;1.80;;;1.70;;
8401;SDS011;4238;48.404;9.498;2023-04-15T10:33:40;2.22;;;2.08;;
8401;SDS011;4238;48.404;9.498;2023-04-15T10:36:07;2.22;;;2.13;;
8401;SDS011;4238;48.404;9.498;2023-04-15T10:38:36;2.35;;;1.95;;
8401;SDS011;4238;48.404;9.498;2023-04-15T10:41:14;4.07;;;2.38;;
8401;SDS011;4238;48.404;9.498;2023-04-15T10:43:46;2.55;;;2.20;;
8401;SDS011;4238;48.404;9.498;2023-04-15T10:46:16;2.25;;;1.83;;
8401;SDS011;4238;48.404;9.498;2023-04-15T10:48:49;2.65;;;2.10;;
8401;SDS011;4238;48.404;9.498;2023-04-15T10:51:25;3.25;;;2.30;;
8401;SDS011;4238;48.404;9.498;2023-04-15T10:53:55;2.42;;;2.33;;
8401;SDS011;4238;48.404;9.498;2023-04-15T10:56:23;4.25;;;2.75;;
8401;SDS011;4238;48.404;9.498;2023-04-15T10:58:50;2.97;;;2.53;;
8401;SDS011;4238;48.404;9.498;2023-04-15T11:01:18;4.30;;;2.25;;
8401;SDS011;4238;48.404;9.498;2023-04-15T11:03:49;2.35;;;2.15;;
8401;SDS011;4238;48.404;9.498;2023-04-15T11:06:16;2.75;;;2.55;;
8401;SDS011;4238;48.404;9.498;2023-04-15T11:08:52;2.20;;;2.10;;
8401;SDS011;4238;48.404;9.498;2023-04-15T11:11:21;2.53;;;2.20;;
8401;SDS011;4238;48.404;9.498;2023-04-15T11:13:49;2.78;;;2.17;;
8401;SDS011;4238;48.404;9.498;2023-04-15T11:16:18;3.67;;;2.72;;
8401;SDS011;4238;48.404;9.498;2023-04-15T11:18:53;3.05;;;2.40;;
8401;SDS011;4238;48.404;9.498;2023-04-15T11:21:23;4.55;;;2.42;;
8401;SDS011;4238;48.404;9.498;2023-04-15T11:23:52;2.50;;;2.30;;
8401;SDS011;4238;48.404;9.498;2023-04-15T11:26:19;2.80;;;2.53;;
8401;SDS011;4238;48.404;9.498;2023-04-15T11:28:51;2.47;;;2.38;;
8401;SDS011;4238;48.404;9.498;2023-04-15T11:31:18;3.08;;;2.85;;
8401;SDS011;4238;48.404;9.498;2023-04-15T11:33:54;3.63;;;2.50;;
8401;SDS011;4238;48.404;9.498;2023-04-15T11:36:23;4.22;;;2.53;;
8401;SDS011;4238;48.404;9.498;2023-04-15T11:38:52;2.90;;;2.70;;
8401;SDS011;4238;48.404;9.498;2023-04-15T11:41:19;4.53;;;3.17;;
8401;SDS011;4238;48.404;9.498;2023-04-15T11:43:47;6.03;;;3.30;;
8401;SDS011;4238;48.404;9.498;2023-04-15T11:46:14;6.28;;;3.85;;
8401;SDS011;4238;48.404;9.498;2023-04-15T11:48:42;3.97;;;3.40;;
8401;SDS011;4238;48.404;9.498;2023-04-15T11:51:12;3.83;;;3.40;;
8401;SDS011;4238;48.404;9.498;2023-04-15T11:53:40;3.47;;;3.17;;
8401;SDS011;4238;48.404;9.498;2023-04-15T11:56:08;3.35;;;2.65;;
8401;SDS011;4238;48.404;9.498;2023-04-15T11:58:36;3.78;;;3.00;;
8401;SDS011;4238;48.404;9.498;2023-04-15T12:01:04;3.90;;;2.80;;
8401;SDS011;4238;48.404;9.498;2023-04-15T12:03:36;3.33;;;2.90;;
8401;SDS011;4238;48.404;9.498;2023-04-15T12:06:05;3.03;;;2.50;;
8401;SDS011;4238;48.404;9.498;2023-04-15T12:08:55;3.53;;;3.15;;
8401;SDS011;4238;48.404;9.498;2023-04-15T12:11:27;3.42;;;3.13;;
8401;SDS011;4238;48.404;9.498;2023-04-15T12:13:57;5.78;;;3.50;;
8401;SDS011;4238;48.404;9.498;2023-04-15T12:16:27;3.75;;;2.85;;
8401;SDS011;4238;48.404;9.498;2023-04-15T12:18:55;2.35;;;2.15;;
8401;SDS011;4238;48.404;9.498;2023-04-15T12:21:23;3.65;;;2.58;;
8401;SDS011;4238;48.404;9.498;2023-04-15T12:23:51;2.92;;;2.70;;
8401;SDS011;4238;48.404;9.498;2023-04-15T12:26:26;2.70;;;2.50;;
8401;SDS011;4238;48.404;9.498;2023-04-15T12:28:54;3.85;;;2.67;;
8401;SDS011;4238;48.404;9.498;2023-04-15T12:31:21;2.92;;;2.72;;
8401;SDS011;4238;48.404;9.498;2023-04-15T12:33:49;3.30;;;3.10;;
8401;SDS011;4238;48.404;9.498;2023-04-15T12:36:16;4.25;;;3.03;;
8401;SDS011;4238;48.404;9.498;2023-04-15T12:38:42;2.92;;;2.72;;
8401;SDS011;4238;48.404;9.498;2023-04-15T12:41:09;4.85;;;3.08;;
8401;SDS011;4238;48.404;9.498;2023-04-15T12:43:38;4.88;;;3.10;;
8401;SDS011;4238;48.404;9.498;2023-04-15T12:46:05;6.55;;;3.55;;
8401;SDS011;4238;48.404;9.498;2023-04-15T12:48:32;4.97;;;3.30;;
8401;SDS011;4238;48.404;9.498;2023-04-15T12:50:59;4.90;;;3.17;;
8401;SDS011;4238;48.404;9.498;2023-04-15T12:53:26;4.00;;;2.90;;
8401;SDS011;4238;48.404;9.498;2023-04-15T12:55:53;4.13;;;3.40;;
8401;SDS011;4238;48.404;9.498;2023-04-15T12:58:20;5.05;;;3.65;;
8401;SDS011;4238;48.404;9.498;2023-04-15T13:00:48;4.85;;;3.58;;
8401;SDS011;4238;48.404;9.498;2023-04-15T13:03:15;3.85;;;3.50;;
8401;SDS011;4238;48.404;9.498;2023-04-15T13:05:42;4.53;;;3.92;;
8401;SDS011;4238;48.404;9.498;2023-04-15T13:08:09;3.97;;;3.67;;
8401;SDS011;4238;48.404;9.498;2023-04-15T13:10:36;3.97;;;3.67;;
8401;SDS011;4238;48.404;9.498;2023-04-15T13:13:03;4.95;;;3.90;;
8401;SDS011;4238;48.404;9.498;2023-04-15T13:15:31;4.90;;;3.50;;
8401;SDS011;4238;48.404;9.498;2023-04-15T13:17:59;4.93;;;4.10;;
8401;SDS011;4238;48.404;9.498;2023-04-15T13:20:26;4.60;;;4.20;;
8401;SDS011;4238;48.404;9.498;2023-04-15T13:22:53;6.13;;;4.55;;
8401;SDS011;4238;48.404;9.498;2023-04-15T13:25:20;6.30;;;4.97;;
8401;SDS011;4238;48.404;9.498;2023-04-15T13:27:48;6.47;;;5.90;;
8401;SDS011;4238;48.404;9.498;2023-04-15T13:30:15;7.30;;;6.53;;
8401;SDS011;4238;48.404;9.498;2023-04-15T13:32:42;6.65;;;5.53;;
8401;SDS011;4238;48.404;9.498;2023-04-15T13:35:11;7.28;;;6.28;;
8401;SDS011;4238;48.404;9.498;2023-04-15T13:37:38;9.70;;;8.70;;
8401;SDS011;4238;48.404;9.498;2023-04-15T13:40:06;7.40;;;6.70;;
8401;SDS011;4238;48.404;9.498;2023-04-15T13:42:33;6.85;;;6.07;;
8401;SDS011;4238;48.404;9.498;2023-04-15T13:45:00;6.55;;;5.85;;
8401;SDS011;4238;48.404;9.498;2023-04-15T13:47:27;6.23;;;5.63;;
8401;SDS011;4238;48.404;9.498;2023-04-15T13:49:54;6.07;;;4.67;;
8401;SDS011;4238;48.404;9.498;2023-04-15T13:52:22;5.63;;;5.00;;
8401;SDS011;4238;48.404;9.498;2023-04-15T13:54:49;7.50;;;5.13;;
8401;SDS011;4238;48.404;9.498;2023-04-15T13:57:16;6.80;;;5.93;;
8401;SDS011;4238;48.404;9.498;2023-04-15T13:59:43;8.00;;;5.77;;
8401;SDS011;4238;48.404;9.498;2023-04-15T14:02:10;6.50;;;5.83;;
8401;SDS011;4238;48.404;9.498;2023-04-15T14:04:37;7.17;;;5.73;;
8401;SDS011;4238;48.404;9.498;2023-04-15T14:07:06;9.57;;;6.50;;
8401;SDS011;4238;48.404;9.498;2023-04-15T14:09:35;9.07;;;7.47;;
8401;SDS011;4238;48.404;9.498;2023-04-15T14:12:02;5.97;;;5.33;;
8401;SDS011;4238;48.404;9.498;2023-04-15T14:14:29;7.17;;;5.47;;
8401;SDS011;4238;48.404;9.498;2023-04-15T14:16:56;6.33;;;5.20;;
8401;SDS011;4238;48.404;9.498;2023-04-15T14:19:23;6.80;;;5.20;;
8401;SDS011;4238;48.404;9.498;2023-04-15T14:21:50;5.20;;;4.80;;
8401;SDS011;4238;48.404;9.498;2023-04-15T14:24:17;7.90;;;7.10;;
8401;SDS011;4238;48.404;9.498;2023-04-15T14:26:45;5.87;;;5.37;;
8401;SDS011;4238;48.404;9.498;2023-04-15T14:29:12;5.30;;;4.40;;
8401;SDS011;4238;48.404;9.498;2023-04-15T14:31:39;5.03;;;4.53;;
8401;SDS011;4238;48.404;9.498;2023-04-15T14:34:06;5.37;;;4.37;;
8401;SDS011;4238;48.404;9.498;2023-04-15T14:36:33;5.90;;;4.37;;
8401;SDS011;4238;48.404;9.498;2023-04-15T14:39:00;4.27;;;3.87;;
8401;SDS011;4238;48.404;9.498;2023-04-15T14:41:28;5.20;;;4.70;;
8401;SDS011;4238;48.404;9.498;2023-04-15T14:43:56;5.40;;;4.70;;
8401;SDS011;4238;48.404;9.498;2023-04-15T14:46:23;6.83;;;5.47;;
8401;SDS011;4238;48.404;9.498;2023-04-15T14:48:51;4.90;;;4.50;;
8401;SDS011;4238;48.404;9.498;2023-04-15T14:51:18;3.97;;;3.67;;
8401;SDS011;4238;48.404;9.498;2023-04-15T14:53:45;4.60;;;4.20;;
8401;SDS011;4238;48.404;9.498;2023-04-15T14:56:11;4.33;;;3.60;;
8401;SDS011;4238;48.404;9.498;2023-04-15T14:58:38;4.13;;;3.70;;
8401;SDS011;4238;48.404;9.498;2023-04-15T15:01:07;4.70;;;4.30;;
8401;SDS011;4238;48.404;9.498;2023-04-15T15:03:33;4.50;;;3.53;;
8401;SDS011;4238;48.404;9.498;2023-04-15T15:06:01;4.50;;;4.10;;
8401;SDS011;4238;48.404;9.498;2023-04-15T15:08:27;3.87;;;3.50;;
8401;SDS011;4238;48.404;9.498;2023-04-15T15:10:55;4.47;;;4.07;;
8401;SDS011;4238;48.404;9.498;2023-04-15T15:13:22;4.30;;;4.00;;
8401;SDS011;4238;48.404;9.498;2023-04-15T15:15:49;4.30;;;3.90;;
8401;SDS011;4238;48.404;9.498;2023-04-15T15:18:17;4.53;;;4.13;;